Terminal Aerodrome Forecast
Issued by NWS

Home | Current Version | Previous Version | Graphics & Text | Print | Product List | Glossary On
Versions: 1 2 3 4 5 6 7 8 9 10 11 12 13 14 15 16 17 18 19 20
000
FTUS43 KOAX 230800 AAA
TAFCDR
TAF AMD
KCDR 230852Z 2309/2406 VRB15G30KT P6SM VCTS FEW050CB
     FM231000 15005KT P6SM SKC
     FM232200 16013G22KT P6SM VCTS SCT100CB=

USA.gov is the U.S. government's official web portal to all federal, state and local government web resources and services.